createdAt,value
2023-02-11T00:00:18.826Z,63.91
2023-02-11T00:01:18.840Z,63.90
2023-02-11T00:02:18.860Z,62.62
2023-02-11T00:03:18.833Z,63.94
2023-02-11T00:04:18.774Z,65.11
2023-02-11T00:05:18.746Z,65.57
2023-02-11T00:06:18.743Z,65.05
2023-02-11T00:07:18.700Z,66.11
2023-02-11T00:08:18.674Z,65.72
2023-02-11T00:09:18.656Z,65.19
2023-02-11T00:10:18.648Z,63.67
2023-02-11T00:11:18.676Z,64.44
2023-02-11T00:12:18.622Z,64.34
2023-02-11T00:13:18.581Z,65.44
2023-02-11T00:14:18.564Z,65.58
2023-02-11T00:15:18.580Z,64.47
2023-02-11T00:16:18.599Z,61.72
2023-02-11T00:17:18.531Z,64.63
2023-02-11T00:18:18.514Z,64.57
2023-02-11T00:19:18.519Z,64.44
2023-02-11T00:20:18.475Z,66.50
2023-02-11T00:21:18.501Z,64.85
2023-02-11T00:22:18.445Z,63.35
2023-02-11T00:23:18.424Z,65.76
2023-02-11T00:24:18.429Z,64.22
2023-02-11T00:25:18.389Z,64.20
2023-02-11T00:26:18.435Z,65.58
2023-02-11T00:27:18.353Z,64.67
2023-02-11T00:28:18.388Z,64.25
2023-02-11T00:29:18.330Z,62.18
2023-02-11T00:30:18.310Z,64.83
2023-02-11T00:31:18.390Z,64.89
2023-02-11T00:32:18.286Z,64.77
2023-02-11T00:33:18.261Z,63.72
2023-02-11T00:34:18.235Z,62.53
2023-02-11T00:35:18.212Z,64.74
2023-02-11T00:36:18.251Z,64.56
2023-02-11T00:37:18.195Z,65.36
2023-02-11T00:38:18.170Z,64.44
2023-02-11T00:39:18.144Z,63.41
2023-02-11T00:40:18.148Z,61.67
2023-02-11T00:41:18.153Z,63.40
2023-02-11T00:42:18.083Z,63.30
2023-02-11T00:43:18.101Z,64.92
2023-02-11T00:44:18.051Z,65.34
2023-02-11T00:45:18.026Z,65.23
2023-02-11T00:46:18.101Z,63.55
2023-02-11T00:47:17.989Z,65.03
2023-02-11T00:48:17.980Z,65.86
2023-02-11T00:49:17.977Z,64.93
2023-02-11T00:50:17.966Z,61.05
2023-02-11T00:51:17.971Z,62.97
2023-02-11T00:52:18.775Z,65.09
2023-02-11T00:53:17.917Z,65.60
2023-02-11T00:54:17.875Z,65.63
2023-02-11T00:55:17.879Z,64.27
2023-02-11T00:56:18.891Z,64.46
2023-02-11T00:57:17.832Z,65.56
2023-02-11T00:58:17.812Z,64.40
2023-02-11T00:59:17.791Z,64.25
2023-02-11T01:00:17.780Z,63.77
2023-02-11T01:01:18.015Z,66.25
2023-02-11T01:02:17.751Z,65.96
2023-02-11T01:03:17.730Z,66.46
2023-02-11T01:04:17.713Z,64.10
2023-02-11T01:05:17.760Z,65.13
2023-02-11T01:06:17.681Z,63.69
2023-02-11T01:07:17.698Z,64.93
2023-02-11T01:08:17.642Z,64.85
2023-02-11T01:09:17.620Z,64.16
2023-02-11T01:10:17.624Z,64.18
2023-02-11T01:11:17.601Z,62.74
2023-02-11T01:12:17.615Z,65.63
2023-02-11T01:13:17.563Z,66.98
2023-02-11T01:14:17.554Z,64.27
2023-02-11T01:15:17.551Z,62.74
2023-02-11T01:16:17.602Z,64.22
2023-02-11T01:17:17.559Z,63.86
2023-02-11T01:18:17.507Z,63.19
2023-02-11T01:19:17.478Z,66.25
2023-02-11T01:20:17.447Z,66.82
2023-02-11T01:21:17.436Z,65.46
2023-02-11T01:22:17.519Z,63.96
2023-02-11T01:23:17.426Z,63.68
2023-02-11T01:24:17.377Z,62.36
2023-02-11T01:25:17.386Z,62.15
2023-02-11T01:26:17.359Z,64.51
2023-02-11T01:27:17.368Z,65.39
2023-02-11T01:28:17.378Z,63.30
2023-02-11T01:29:17.299Z,61.96
2023-02-11T01:30:17.297Z,63.65
2023-02-11T01:31:17.319Z,63.56
2023-02-11T01:32:17.316Z,63.62
2023-02-11T01:33:17.221Z,62.65
2023-02-11T01:34:17.217Z,63.25
2023-02-11T01:35:17.230Z,64.34
2023-02-11T01:36:17.165Z,62.22
2023-02-11T01:37:17.188Z,63.30
2023-02-11T01:38:17.121Z,64.76
2023-02-11T01:39:17.115Z,63.51
2023-02-11T01:40:17.126Z,64.78
2023-02-11T01:41:17.080Z,64.47
2023-02-11T01:42:17.099Z,64.32
2023-02-11T01:43:17.049Z,61.63
2023-02-11T01:44:17.028Z,61.32
2023-02-11T01:45:17.004Z,62.12
2023-02-11T01:46:17.028Z,62.29
2023-02-11T01:47:17.021Z,63.26
2023-02-11T01:48:16.959Z,62.20
2023-02-11T01:49:16.987Z,61.35
2023-02-11T01:50:16.939Z,62.44
2023-02-11T01:51:17.901Z,62.96
2023-02-11T01:52:16.904Z,62.48
2023-02-11T01:53:16.889Z,63.97
2023-02-11T01:54:16.902Z,64.39
2023-02-11T01:55:16.954Z,63.10
2023-02-11T01:56:16.818Z,63.87
2023-02-11T01:57:16.824Z,61.98
2023-02-11T01:58:16.768Z,63.14
2023-02-11T01:59:16.779Z,64.77
2023-02-11T02:00:16.749Z,63.24
2023-02-11T02:01:16.762Z,63.24
2023-02-11T02:02:16.753Z,63.58
2023-02-11T02:03:16.727Z,63.57
2023-02-11T02:04:17.700Z,64.52
2023-02-11T02:05:16.659Z,65.09
2023-02-11T02:06:16.641Z,63.44
2023-02-11T02:07:16.666Z,63.76
2023-02-11T02:08:16.614Z,62.71
2023-02-11T02:09:16.628Z,66.33
2023-02-11T02:10:16.597Z,64.67
2023-02-11T02:11:16.569Z,63.46
2023-02-11T02:12:16.580Z,65.14
2023-02-11T02:13:16.592Z,63.71
2023-02-11T02:14:16.538Z,62.27
2023-02-11T02:15:16.498Z,61.62
2023-02-11T02:16:50.196Z,63.19
2023-02-11T02:17:16.484Z,62.99
2023-02-11T02:18:16.427Z,64.09
2023-02-11T02:19:16.409Z,65.25
2023-02-11T02:20:16.423Z,62.25
2023-02-11T02:21:16.405Z,61.66
2023-02-11T02:22:16.386Z,62.09
2023-02-11T02:23:16.361Z,62.57
2023-02-11T02:24:16.337Z,61.63
2023-02-11T02:25:16.329Z,61.12
2023-02-11T02:26:16.317Z,62.17
2023-02-11T02:27:16.360Z,62.64
2023-02-11T02:28:16.284Z,61.69
2023-02-11T02:29:16.241Z,63.66
2023-02-11T02:30:16.238Z,63.97
2023-02-11T02:31:16.402Z,66.25
2023-02-11T02:32:16.220Z,62.39
2023-02-11T02:33:22.911Z,62.88
2023-02-11T02:34:18.162Z,62.44
2023-02-11T02:35:16.182Z,61.88
2023-02-11T02:36:16.129Z,65.48
2023-02-11T02:37:16.149Z,64.39
2023-02-11T02:38:16.079Z,63.40
2023-02-11T02:39:16.061Z,63.15
2023-02-11T02:40:16.046Z,64.88
2023-02-11T02:41:16.054Z,66.86
2023-02-11T02:42:16.052Z,63.41
2023-02-11T02:43:16.003Z,60.83
2023-02-11T02:44:15.980Z,63.55
2023-02-11T02:45:15.975Z,61.63
2023-02-11T02:46:15.969Z,60.43
2023-02-11T02:47:16.030Z,64.04
2023-02-11T02:48:15.943Z,62.52
2023-02-11T02:49:15.895Z,64.55
2023-02-11T02:50:15.883Z,63.79
2023-02-11T02:51:15.876Z,64.66
2023-02-11T02:52:15.944Z,62.84
2023-02-11T02:53:15.838Z,64.22
2023-02-11T02:54:15.824Z,63.49
2023-02-11T02:55:15.807Z,62.42
2023-02-11T02:56:15.783Z,62.09
2023-02-11T02:57:15.802Z,63.07
2023-02-11T02:58:15.758Z,63.73
2023-02-11T02:59:15.736Z,63.58
2023-02-11T03:00:15.732Z,65.14
2023-02-11T03:01:15.726Z,62.10
2023-02-11T03:02:15.726Z,65.72
2023-02-11T03:03:15.678Z,65.07
2023-02-11T03:04:15.643Z,64.72
2023-02-11T03:05:15.630Z,63.47
2023-02-11T03:06:15.606Z,62.18
2023-02-11T03:07:16.613Z,61.31
2023-02-11T03:08:15.569Z,61.57
2023-02-11T03:09:15.560Z,63.94
2023-02-11T03:10:15.533Z,61.67
2023-02-11T03:11:15.530Z,63.70
2023-02-11T03:12:15.541Z,63.55
2023-02-11T03:13:15.475Z,64.17
2023-02-11T03:14:15.459Z,64.20
2023-02-11T03:15:15.455Z,63.60
2023-02-11T03:16:15.508Z,62.02
2023-02-11T03:17:15.472Z,61.89
2023-02-11T03:18:15.392Z,63.57
2023-02-11T03:19:15.385Z,63.57
2023-02-11T03:20:15.362Z,58.74
2023-02-11T03:21:15.352Z,62.77
2023-02-11T03:22:15.366Z,62.63
2023-02-11T03:23:15.329Z,61.39
2023-02-11T03:24:16.318Z,62.21
2023-02-11T03:25:15.280Z,63.34
2023-02-11T03:26:15.254Z,60.91
2023-02-11T03:27:15.285Z,61.89
2023-02-11T03:28:15.252Z,64.44
2023-02-11T03:29:15.255Z,62.44
2023-02-11T03:30:15.235Z,63.50
2023-02-11T03:31:15.328Z,61.28
2023-02-11T03:32:15.373Z,62.07
2023-02-11T03:33:15.154Z,64.51
2023-02-11T03:34:15.120Z,66.05
2023-02-11T03:35:15.098Z,65.09
2023-02-11T03:36:15.075Z,64.51
2023-02-11T03:37:15.118Z,63.55
2023-02-11T03:38:15.054Z,64.96
2023-02-11T03:39:15.035Z,65.28
2023-02-11T03:40:15.043Z,64.13
2023-02-11T03:41:15.010Z,62.94
2023-02-11T03:42:15.014Z,61.26
2023-02-11T03:43:14.976Z,63.67
2023-02-11T03:44:14.948Z,60.79
2023-02-11T03:45:14.951Z,64.50
2023-02-11T03:46:14.925Z,62.64
2023-02-11T03:47:14.930Z,62.48
2023-02-11T03:48:14.874Z,65.01
2023-02-11T03:49:14.856Z,64.46
2023-02-11T03:50:14.854Z,66.65
2023-02-11T03:51:15.418Z,63.80
2023-02-11T03:52:14.834Z,64.62
2023-02-11T03:53:14.821Z,63.37
2023-02-11T03:54:14.786Z,63.03
2023-02-11T03:55:14.771Z,59.91
2023-02-11T03:56:14.744Z,63.41
2023-02-11T03:57:14.754Z,65.68
2023-02-11T03:58:14.703Z,64.53
2023-02-11T03:59:14.702Z,64.07
2023-02-11T04:00:14.736Z,60.75
2023-02-11T04:01:14.713Z,63.38
2023-02-11T04:02:14.682Z,63.04
2023-02-11T04:03:14.637Z,63.20
2023-02-11T04:04:14.600Z,65.44
2023-02-11T04:05:14.577Z,61.26
2023-02-11T04:06:14.559Z,61.62
2023-02-11T04:07:14.585Z,63.64
2023-02-11T04:08:14.540Z,65.05
2023-02-11T04:09:14.524Z,62.21
2023-02-11T04:10:14.517Z,63.65
2023-02-11T04:11:14.494Z,63.22
2023-02-11T04:12:14.498Z,64.94
2023-02-11T04:13:14.448Z,65.20
2023-02-11T04:14:14.456Z,62.72
2023-02-11T04:15:14.412Z,61.42
2023-02-11T04:16:14.448Z,66.17
2023-02-11T04:17:14.427Z,63.39
2023-02-11T04:18:14.374Z,64.31
2023-02-11T04:19:14.344Z,62.95
2023-02-11T04:20:14.342Z,63.28
2023-02-11T04:21:14.319Z,65.22
2023-02-11T04:22:14.342Z,64.75
2023-02-11T04:23:14.270Z,63.97
2023-02-11T04:24:14.267Z,63.57
2023-02-11T04:25:14.257Z,63.54
2023-02-11T04:26:14.283Z,62.63
2023-02-11T04:27:14.231Z,65.22
2023-02-11T04:28:14.224Z,64.04
2023-02-11T04:29:14.204Z,65.82
2023-02-11T04:30:14.157Z,64.56
2023-02-11T04:31:14.201Z,63.25
2023-02-11T04:32:14.172Z,62.23
2023-02-11T04:33:14.116Z,63.68
2023-02-11T04:34:14.089Z,65.78
2023-02-11T04:35:14.079Z,64.13
2023-02-11T04:36:14.061Z,63.91
2023-02-11T04:37:14.080Z,65.20
2023-02-11T04:38:14.032Z,64.92
2023-02-11T04:39:14.014Z,63.91
2023-02-11T04:40:13.981Z,66.52
2023-02-11T04:41:13.963Z,65.15
2023-02-11T04:42:13.958Z,65.94
2023-02-11T04:43:13.971Z,65.01
2023-02-11T04:44:13.905Z,62.85
2023-02-11T04:45:13.902Z,65.06
2023-02-11T04:46:13.941Z,63.35
2023-02-11T04:47:13.863Z,62.97
2023-02-11T04:48:13.873Z,62.83
2023-02-11T04:49:13.815Z,62.34
2023-02-11T04:50:13.811Z,64.75
2023-02-11T04:51:13.796Z,63.76
2023-02-11T04:52:13.789Z,62.04
2023-02-11T04:53:13.789Z,61.64
2023-02-11T04:54:13.743Z,64.57
2023-02-11T04:55:13.736Z,64.27
2023-02-11T04:56:13.716Z,63.79
2023-02-11T04:57:13.705Z,63.74
2023-02-11T04:58:13.713Z,64.22
2023-02-11T04:59:13.647Z,64.38
2023-02-11T05:00:13.643Z,62.58
2023-02-11T05:01:13.617Z,64.07
2023-02-11T05:02:13.639Z,65.06
2023-02-11T05:03:13.613Z,66.59
2023-02-11T05:04:13.678Z,66.02
2023-02-11T05:05:13.599Z,66.58
2023-02-11T05:06:13.539Z,63.42
2023-02-11T05:07:13.524Z,62.57
2023-02-11T05:08:13.538Z,64.04
2023-02-11T05:09:13.487Z,65.47
2023-02-11T05:10:13.458Z,66.26
2023-02-11T05:11:13.468Z,65.04
2023-02-11T05:12:13.490Z,66.22
2023-02-11T05:13:13.461Z,63.13
2023-02-11T05:14:13.397Z,64.39
2023-02-11T05:15:13.375Z,65.05
2023-02-11T05:16:13.405Z,63.64
2023-02-11T05:17:13.362Z,62.70
2023-02-11T05:18:13.357Z,64.54
2023-02-11T05:19:13.569Z,63.74
2023-02-11T05:20:13.302Z,64.29
2023-02-11T05:21:13.269Z,65.31
2023-02-11T05:22:13.262Z,66.18
2023-02-11T05:23:13.273Z,65.35
2023-02-11T05:24:13.234Z,65.64
2023-02-11T05:25:13.230Z,65.02
2023-02-11T05:26:13.187Z,64.04
2023-02-11T05:27:13.167Z,66.45
2023-02-11T05:28:13.273Z,64.86
2023-02-11T05:29:13.136Z,63.41
2023-02-11T05:30:13.116Z,65.61
2023-02-11T05:31:13.203Z,65.89
2023-02-11T05:32:13.083Z,64.29
2023-02-11T05:33:13.106Z,65.64
2023-02-11T05:34:13.055Z,65.83
2023-02-11T05:35:13.059Z,65.26
2023-02-11T05:36:13.009Z,65.27
2023-02-11T05:37:14.054Z,64.52
2023-02-11T05:38:13.034Z,65.36
2023-02-11T05:39:12.970Z,65.22
2023-02-11T05:40:12.962Z,66.24
2023-02-11T05:41:12.938Z,66.22
2023-02-11T05:42:12.929Z,65.36
2023-02-11T05:43:12.958Z,64.84
2023-02-11T05:44:12.907Z,65.20
2023-02-11T05:45:12.862Z,65.36
2023-02-11T05:46:12.894Z,64.76
2023-02-11T05:47:12.825Z,65.58
2023-02-11T05:48:12.829Z,64.85
2023-02-11T05:49:12.804Z,65.96
2023-02-11T05:50:12.787Z,65.77
2023-02-11T05:51:12.771Z,64.50
2023-02-11T05:52:12.728Z,65.14
2023-02-11T05:53:12.762Z,66.05
2023-02-11T05:54:12.717Z,66.21
2023-02-11T05:55:12.703Z,65.17
2023-02-11T05:56:12.687Z,66.22
2023-02-11T05:57:12.693Z,66.23
2023-02-11T05:58:12.694Z,67.30
2023-02-11T05:59:12.634Z,66.26
2023-02-11T06:00:12.608Z,65.64
2023-02-11T06:01:12.621Z,66.88
2023-02-11T06:02:12.600Z,64.65
2023-02-11T06:03:12.698Z,66.47
2023-02-11T06:04:12.550Z,66.15
2023-02-11T06:05:12.554Z,64.83
2023-02-11T06:06:12.494Z,65.92
2023-02-11T06:07:12.470Z,64.37
2023-02-11T06:08:12.513Z,65.36
2023-02-11T06:09:12.516Z,62.18
2023-02-11T06:10:12.432Z,64.80
2023-02-11T06:11:12.423Z,66.09
2023-02-11T06:12:12.390Z,66.17
2023-02-11T06:13:12.489Z,66.51
2023-02-11T06:14:12.389Z,66.98
2023-02-11T06:15:12.354Z,65.13
2023-02-11T06:16:12.358Z,65.17
2023-02-11T06:17:14.618Z,64.81
2023-02-11T06:18:12.317Z,66.61
2023-02-11T06:19:12.277Z,66.41
2023-02-11T06:20:12.247Z,65.94
2023-02-11T06:21:12.231Z,66.53
2023-02-11T06:22:12.227Z,65.18
2023-02-11T06:23:12.216Z,62.90
2023-02-11T06:24:13.203Z,65.92
2023-02-11T06:25:12.161Z,66.79
2023-02-11T06:26:12.146Z,66.82
2023-02-11T06:27:12.160Z,64.67
2023-02-11T06:28:12.215Z,65.40
2023-02-11T06:29:12.093Z,64.27
2023-02-11T06:30:12.062Z,64.20
2023-02-11T06:31:12.223Z,63.61
2023-02-11T06:32:33.585Z,66.62
2023-02-11T06:33:14.058Z,68.33
2023-02-11T06:34:12.004Z,65.84
2023-02-11T06:35:12.489Z,67.65
2023-02-11T06:36:12.969Z,67.64
2023-02-11T06:37:11.968Z,67.71
2023-02-11T06:38:11.974Z,67.20
2023-02-11T06:39:11.973Z,67.89
2023-02-11T06:40:11.933Z,65.64
2023-02-11T06:41:11.889Z,66.19
2023-02-11T06:42:11.883Z,66.01
2023-02-11T06:43:11.879Z,66.46
2023-02-11T06:44:11.839Z,66.75
2023-02-11T06:45:11.807Z,66.59
2023-02-11T06:46:11.811Z,65.64
2023-02-11T06:47:11.794Z,66.36
2023-02-11T06:48:11.871Z,65.70
2023-02-11T06:49:11.751Z,67.44
2023-02-11T06:50:11.731Z,66.31
2023-02-11T06:51:11.746Z,66.14
2023-02-11T06:52:11.687Z,67.50
2023-02-11T06:53:11.704Z,66.68
2023-02-11T06:54:11.659Z,67.87
2023-02-11T06:55:11.638Z,68.32
2023-02-11T06:56:11.670Z,67.85
2023-02-11T06:57:11.622Z,68.17
2023-02-11T06:58:11.633Z,66.95
2023-02-11T06:59:11.584Z,66.73
2023-02-11T07:00:11.555Z,65.06
2023-02-11T07:01:11.581Z,67.42
2023-02-11T07:02:11.641Z,65.59
2023-02-11T07:03:11.546Z,66.48
2023-02-11T07:04:11.480Z,66.46
2023-02-11T07:05:11.469Z,66.93
2023-02-11T07:06:11.465Z,67.96
2023-02-11T07:07:11.427Z,64.41
2023-02-11T07:08:11.560Z,66.95
2023-02-11T07:09:11.423Z,67.30
2023-02-11T07:10:11.383Z,67.21
2023-02-11T07:11:11.375Z,66.56
2023-02-11T07:12:11.375Z,66.01
2023-02-11T07:13:11.374Z,67.23
2023-02-11T07:14:11.316Z,65.75
2023-02-11T07:15:11.286Z,64.56
2023-02-11T07:16:11.367Z,63.52
2023-02-11T07:17:11.247Z,65.22
2023-02-11T07:18:14.296Z,65.62
2023-02-11T07:19:11.223Z,67.40
2023-02-11T07:20:11.213Z,66.09
2023-02-11T07:21:11.217Z,66.77
2023-02-11T07:22:11.167Z,66.41
2023-02-11T07:23:11.192Z,66.47
2023-02-11T07:24:11.531Z,66.42
2023-02-11T07:25:12.115Z,66.85
2023-02-11T07:26:11.101Z,67.49
2023-02-11T07:27:11.104Z,66.71
2023-02-11T07:28:11.248Z,67.22
2023-02-11T07:29:11.063Z,66.00
2023-02-11T07:30:11.045Z,67.05
2023-02-11T07:31:11.105Z,67.73
2023-02-11T07:32:11.062Z,68.00
2023-02-11T07:33:11.012Z,68.60
2023-02-11T07:34:11.001Z,67.37
2023-02-11T07:35:10.951Z,65.96
2023-02-11T07:36:10.925Z,67.25
2023-02-11T07:37:10.919Z,65.21
2023-02-11T07:38:10.929Z,65.78
2023-02-11T07:39:10.908Z,66.59
2023-02-11T07:40:10.867Z,66.06
2023-02-11T07:41:10.840Z,66.13
2023-02-11T07:42:10.913Z,66.56
2023-02-11T07:43:10.851Z,68.18
2023-02-11T07:44:10.776Z,65.84
2023-02-11T07:45:10.784Z,66.91
2023-02-11T07:46:10.797Z,67.91
2023-02-11T07:47:10.741Z,68.12
2023-02-11T07:48:10.788Z,68.05
2023-02-11T07:49:10.693Z,66.92
2023-02-11T07:50:10.702Z,65.93
2023-02-11T07:51:10.722Z,65.82
2023-02-11T07:52:10.658Z,66.64
2023-02-11T07:53:10.676Z,66.04
2023-02-11T07:54:10.621Z,66.95
2023-02-11T07:55:10.604Z,66.26
2023-02-11T07:56:10.612Z,67.03
2023-02-11T07:57:10.561Z,65.57
2023-02-11T07:58:10.574Z,66.78
2023-02-11T07:59:10.536Z,66.27
2023-02-11T08:00:10.517Z,67.96
2023-02-11T08:01:10.527Z,66.70
2023-02-11T08:02:10.571Z,67.68
2023-02-11T08:03:10.493Z,68.17
2023-02-11T08:04:10.456Z,67.32
2023-02-11T08:05:10.454Z,66.19
2023-02-11T08:06:10.437Z,66.78
2023-02-11T08:07:10.398Z,68.16
2023-02-11T08:08:10.413Z,67.52
2023-02-11T08:09:10.375Z,66.98
2023-02-11T08:10:10.336Z,69.99
2023-02-11T08:11:10.345Z,68.24
2023-02-11T08:12:10.301Z,67.28
2023-02-11T08:13:10.339Z,66.34
2023-02-11T08:14:10.267Z,66.60
2023-02-11T08:15:10.252Z,68.01
2023-02-11T08:16:10.258Z,65.85
2023-02-11T08:17:42.574Z,65.35
2023-02-11T08:18:10.207Z,66.78
2023-02-11T08:19:10.231Z,66.14
2023-02-11T08:20:10.192Z,68.09
2023-02-11T08:21:10.154Z,66.07
2023-02-11T08:22:10.148Z,65.33
2023-02-11T08:23:10.138Z,66.80
2023-02-11T08:24:10.160Z,65.98
2023-02-11T08:25:10.131Z,67.86
2023-02-11T08:26:10.072Z,68.71
2023-02-11T08:27:10.057Z,68.44
2023-02-11T08:28:10.097Z,67.76
2023-02-11T08:29:10.040Z,65.85
2023-02-11T08:30:09.993Z,66.03
2023-02-11T08:31:10.027Z,67.78
2023-02-11T08:32:10.066Z,66.71
2023-02-11T08:33:09.963Z,66.24
2023-02-11T08:34:09.975Z,67.12
2023-02-11T08:35:09.910Z,67.70
2023-02-11T08:36:09.916Z,66.31
2023-02-11T08:37:09.913Z,66.82
2023-02-11T08:38:09.872Z,66.14
2023-02-11T08:39:19.120Z,67.05
2023-02-11T08:40:11.853Z,66.59
2023-02-11T08:41:09.808Z,67.63
2023-02-11T08:42:09.820Z,66.20
2023-02-11T08:43:09.830Z,67.88
2023-02-11T08:44:09.775Z,64.59
2023-02-11T08:45:09.728Z,66.86
2023-02-11T08:46:09.790Z,67.25
2023-02-11T08:47:09.734Z,64.88
2023-02-11T08:48:09.705Z,67.50
2023-02-11T08:49:09.756Z,65.96
2023-02-11T08:50:09.652Z,66.23
2023-02-11T08:51:09.662Z,66.21
2023-02-11T08:52:09.645Z,65.68
2023-02-11T08:53:09.605Z,66.68
2023-02-11T08:54:09.631Z,67.00
2023-02-11T08:55:09.562Z,67.39
2023-02-11T08:56:11.169Z,67.13
2023-02-11T08:57:09.553Z,65.72
2023-02-11T08:58:09.543Z,66.23
2023-02-11T08:59:09.614Z,65.58
2023-02-11T09:00:09.472Z,67.19
2023-02-11T09:01:09.531Z,66.61
2023-02-11T09:02:09.504Z,66.94
2023-02-11T09:03:09.425Z,65.94
2023-02-11T09:04:09.458Z,66.21
2023-02-11T09:05:09.394Z,64.74
2023-02-11T09:06:09.371Z,66.02
2023-02-11T09:07:09.361Z,67.75
2023-02-11T09:08:09.340Z,66.23
2023-02-11T09:09:09.346Z,65.30
2023-02-11T09:10:09.323Z,64.47
2023-02-11T09:11:09.300Z,64.45
2023-02-11T09:12:09.262Z,66.82
2023-02-11T09:13:09.257Z,65.13
2023-02-11T09:14:09.257Z,66.39
2023-02-11T09:15:09.225Z,66.12
2023-02-11T09:16:09.207Z,64.11
2023-02-11T09:17:09.292Z,65.37
2023-02-11T09:18:09.234Z,65.33
2023-02-11T09:19:10.170Z,67.22
2023-02-11T09:20:10.764Z,65.80
2023-02-11T09:21:10.135Z,66.40
2023-02-11T09:22:09.097Z,66.51
2023-02-11T09:23:09.075Z,65.54
2023-02-11T09:24:09.092Z,66.61
2023-02-11T09:25:09.065Z,66.47
2023-02-11T09:26:09.572Z,64.72
2023-02-11T09:27:10.006Z,66.70
2023-02-11T09:28:09.032Z,67.49
2023-02-11T09:29:09.018Z,67.03
2023-02-11T09:30:08.956Z,67.10
2023-02-11T09:31:09.026Z,66.08
2023-02-11T09:32:10.014Z,66.89
2023-02-11T09:33:09.909Z,66.69
2023-02-11T09:34:08.925Z,67.08
2023-02-11T09:35:08.863Z,67.01
2023-02-11T09:36:08.933Z,65.27
2023-02-11T09:37:08.894Z,67.39
2023-02-11T09:38:08.831Z,66.48
2023-02-11T09:39:08.838Z,65.58
2023-02-11T09:40:08.823Z,66.38
2023-02-11T09:41:08.830Z,66.44
2023-02-11T09:42:08.770Z,65.98
2023-02-11T09:43:08.747Z,67.29
2023-02-11T09:44:08.767Z,67.96
2023-02-11T09:45:08.721Z,66.90
2023-02-11T09:46:08.740Z,66.55
2023-02-11T09:47:08.667Z,68.48
2023-02-11T09:48:08.658Z,65.38
2023-02-11T09:49:08.676Z,66.50
2023-02-11T09:50:08.626Z,66.47
2023-02-11T09:51:08.611Z,64.43
2023-02-11T09:52:08.590Z,66.66
2023-02-11T09:53:08.577Z,65.92
2023-02-11T09:54:08.594Z,64.71
2023-02-11T09:55:08.567Z,67.04
2023-02-11T09:56:08.560Z,65.74
2023-02-11T09:57:19.521Z,65.54
2023-02-11T09:58:10.481Z,65.62
2023-02-11T09:59:08.490Z,66.23
2023-02-11T10:00:08.454Z,65.70
2023-02-11T10:01:08.506Z,64.88
2023-02-11T10:02:08.420Z,64.61
2023-02-11T10:03:08.424Z,64.52
2023-02-11T10:04:08.461Z,65.51
2023-02-11T10:05:08.369Z,66.28
2023-02-11T10:06:08.358Z,65.39
2023-02-11T10:07:08.384Z,64.80
2023-02-11T10:08:08.306Z,64.51
2023-02-11T10:09:08.329Z,65.25
2023-02-11T10:10:08.278Z,64.27
2023-02-11T10:11:08.312Z,64.94
2023-02-11T10:12:08.261Z,64.12
2023-02-11T10:13:08.233Z,65.41
2023-02-11T10:14:08.254Z,63.99
2023-02-11T10:15:08.192Z,64.49
2023-02-11T10:16:08.252Z,61.89
2023-02-11T10:17:08.154Z,63.34
2023-02-11T10:18:08.145Z,66.30
2023-02-11T10:19:08.180Z,63.66
2023-02-11T10:20:08.122Z,63.79
2023-02-11T10:21:08.108Z,65.44
2023-02-11T10:22:08.117Z,64.00
2023-02-11T10:23:08.055Z,65.14
2023-02-11T10:24:08.098Z,65.96
2023-02-11T10:25:08.062Z,65.71
2023-02-11T10:26:08.011Z,66.16
2023-02-11T10:27:08.017Z,65.49
2023-02-11T10:28:08.053Z,65.58
2023-02-11T10:29:07.991Z,65.15
2023-02-11T10:30:07.937Z,65.90
2023-02-11T10:31:08.057Z,64.36
2023-02-11T10:32:07.941Z,64.55
2023-02-11T10:33:07.919Z,65.14
2023-02-11T10:34:07.912Z,64.21
2023-02-11T10:35:07.864Z,66.27
2023-02-11T10:36:07.852Z,65.25
2023-02-11T10:37:07.829Z,64.25
2023-02-11T10:38:07.837Z,63.78
2023-02-11T10:39:07.798Z,63.36
2023-02-11T10:40:07.820Z,65.83
2023-02-11T10:41:07.759Z,65.28
2023-02-11T10:42:07.739Z,65.09
2023-02-11T10:43:07.722Z,64.68
2023-02-11T10:44:07.697Z,66.02
2023-02-11T10:45:07.708Z,65.12
2023-02-11T10:46:07.691Z,67.60
2023-02-11T10:47:07.643Z,65.14
2023-02-11T10:48:07.640Z,65.51
2023-02-11T10:49:07.638Z,66.47
2023-02-11T10:50:07.638Z,67.00
2023-02-11T10:51:07.586Z,66.08
2023-02-11T10:52:07.595Z,66.15
2023-02-11T10:53:07.553Z,66.32
2023-02-11T10:54:07.540Z,68.12
2023-02-11T10:55:07.577Z,66.64
2023-02-11T10:56:07.515Z,64.62
2023-02-11T10:57:07.477Z,64.29
2023-02-11T10:58:07.462Z,66.67
2023-02-11T10:59:07.452Z,64.89
2023-02-11T11:00:07.487Z,64.66
2023-02-11T11:01:22.425Z,65.54
2023-02-11T11:02:09.432Z,66.69
2023-02-11T11:03:07.428Z,64.79
2023-02-11T11:04:07.361Z,65.31
2023-02-11T11:05:07.466Z,66.07
2023-02-11T11:06:07.327Z,66.07
2023-02-11T11:07:07.316Z,66.65
2023-02-11T11:08:07.290Z,64.75
2023-02-11T11:09:07.294Z,65.31
2023-02-11T11:10:07.303Z,65.08
2023-02-11T11:11:07.263Z,65.18
2023-02-11T11:12:07.220Z,64.83
2023-02-11T11:13:07.276Z,66.16
2023-02-11T11:14:07.186Z,66.38
2023-02-11T11:15:07.202Z,65.92
2023-02-11T11:16:07.178Z,65.82
2023-02-11T11:17:07.137Z,66.77
2023-02-11T11:18:20.529Z,66.13
2023-02-11T11:19:09.104Z,63.25
2023-02-11T11:20:07.109Z,63.62
2023-02-11T11:21:07.077Z,65.74
2023-02-11T11:22:07.061Z,64.54
2023-02-11T11:23:07.034Z,67.55
2023-02-11T11:24:07.033Z,66.78
2023-02-11T11:25:07.034Z,63.95
2023-02-11T11:26:06.989Z,64.13
2023-02-11T11:27:07.003Z,65.93
2023-02-11T11:28:07.031Z,66.41
2023-02-11T11:29:06.941Z,64.58
2023-02-11T11:30:06.981Z,64.16
2023-02-11T11:31:06.982Z,66.77
2023-02-11T11:32:06.990Z,65.45
2023-02-11T11:33:06.865Z,64.51
2023-02-11T11:34:06.868Z,64.11
2023-02-11T11:35:06.875Z,65.72
2023-02-11T11:36:06.811Z,65.40
2023-02-11T11:37:07.796Z,65.22
2023-02-11T11:38:06.780Z,66.09
2023-02-11T11:39:06.763Z,65.28
2023-02-11T11:40:06.772Z,65.47
2023-02-11T11:41:06.734Z,65.39
2023-02-11T11:42:06.712Z,66.22
2023-02-11T11:43:06.741Z,62.68
2023-02-11T11:44:06.668Z,65.06
2023-02-11T11:45:06.681Z,66.10
2023-02-11T11:46:06.629Z,64.28
2023-02-11T11:47:06.616Z,64.22
2023-02-11T11:48:06.604Z,65.26
2023-02-11T11:49:06.579Z,65.45
2023-02-11T11:50:06.627Z,65.33
2023-02-11T11:51:06.554Z,65.23
2023-02-11T11:52:06.532Z,64.16
2023-02-11T11:53:06.511Z,64.80
2023-02-11T11:54:06.525Z,64.91
2023-02-11T11:55:06.540Z,64.18
2023-02-11T11:56:06.463Z,66.30
2023-02-11T11:57:06.456Z,65.91
2023-02-11T11:58:06.426Z,64.70
2023-02-11T11:59:06.414Z,64.63
2023-02-11T12:00:06.413Z,64.42
2023-02-11T12:01:06.375Z,65.28
2023-02-11T12:02:08.534Z,64.49
2023-02-11T12:03:07.393Z,63.06
2023-02-11T12:04:06.348Z,64.89
2023-02-11T12:05:06.335Z,63.37
2023-02-11T12:06:06.286Z,64.76
2023-02-11T12:07:06.274Z,64.99
2023-02-11T12:08:06.257Z,63.94
2023-02-11T12:09:06.246Z,64.72
2023-02-11T12:10:06.258Z,64.76
2023-02-11T12:11:06.199Z,64.42
2023-02-11T12:12:06.201Z,64.74
2023-02-11T12:13:06.188Z,65.32
2023-02-11T12:14:06.147Z,64.33
2023-02-11T12:15:06.186Z,63.61
2023-02-11T12:16:06.166Z,63.20
2023-02-11T12:17:06.096Z,63.93
2023-02-11T12:18:06.088Z,63.94
2023-02-11T12:19:06.069Z,64.49
2023-02-11T12:20:06.092Z,63.67
2023-02-11T12:21:06.040Z,63.63
2023-02-11T12:22:06.013Z,64.43
2023-02-11T12:23:06.001Z,62.60
2023-02-11T12:24:05.978Z,64.45
2023-02-11T12:25:06.004Z,65.38
2023-02-11T12:26:05.959Z,64.37
2023-02-11T12:27:05.924Z,64.23
2023-02-11T12:28:05.949Z,64.55
2023-02-11T12:29:05.903Z,64.38
2023-02-11T12:30:05.908Z,64.24
2023-02-11T12:31:05.945Z,63.73
2023-02-11T12:32:05.935Z,64.25
2023-02-11T12:33:05.858Z,64.03
2023-02-11T12:34:05.815Z,62.26
2023-02-11T12:35:05.831Z,65.41
2023-02-11T12:36:05.788Z,65.09
2023-02-11T12:37:07.937Z,61.24
2023-02-11T12:38:06.739Z,66.09
2023-02-11T12:39:05.853Z,63.48
2023-02-11T12:40:06.796Z,64.47
2023-02-11T12:41:05.683Z,64.76
2023-02-11T12:42:05.664Z,64.23
2023-02-11T12:43:05.661Z,64.01
2023-02-11T12:44:05.638Z,64.28
2023-02-11T12:45:05.657Z,63.79
2023-02-11T12:46:05.627Z,65.30
2023-02-11T12:47:05.591Z,64.27
2023-02-11T12:48:05.570Z,63.78
2023-02-11T12:49:05.560Z,63.91
2023-02-11T12:50:05.574Z,63.77
2023-02-11T12:51:05.599Z,65.10
2023-02-11T12:52:05.525Z,64.17